Latest Weather Observations for Fort Denison

IDN60901

Issued at 6:11 am EST Monday 11 May 2026 (issued every 10 minutes, with the page automatically refreshed every 10 minutes)

About weather observations | Map of Sydney area stations | Latest observations for Sydney area | Other Formats
Station Details ID: 066022 Name: FORT DENISON Lat: -33.86 Lon: 151.23 Height: 5.0 m
Data from the previous 72 hours. | See also: Recent months for locations in New South Wales
Date/Time
EST
Temp
°C
App
Temp
°C
Dew
Point
°C
Rel
Hum
%
Delta-T
°C
Wind Press
QNH
hPa
Press
MSL
hPa
Rain since
9am
mm
Dir  Spd
km/h
Gust
km/h
Spd
kts
Gust
kts
11/06:00am - - - - - WNW 13 17 7 9 - - -
11/05:30am - - - - - WNW 20 24 11 13 - - -
11/05:00am - - - - - WNW 19 22 10 12 - - -
11/04:30am - - - - - W 17 24 9 13 - - -
11/04:00am - - - - - W 17 20 9 11 - - -
11/03:30am - - - - - WNW 15 19 8 10 - - -
11/03:00am - - - - - WNW 17 22 9 12 - - -
11/02:30am - - - - - WNW 15 20 8 11 - - -
11/02:00am - - - - - W 13 19 7 10 - - -
11/01:30am - - - - - SW 7 13 4 7 - - -
11/01:00am - - - - - WSW 6 13 3 7 - - -
11/12:30am - - - - - WSW 9 19 5 10 - - -
11/12:00am - - - - - W 13 17 7 9 - - -
 
Date/Time
EST
Temp
°C
App
Temp
°C
Dew
Point
°C
Rel
Hum
%
Delta-T
°C
Wind Press
QNH
hPa
Press
MSL
hPa
Rain since
9am
mm
Dir  Spd
km/h
Gust
km/h
Spd
kts
Gust
kts
10/11:30pm - - - - - WNW 15 19 8 10 - - -
10/11:00pm - - - - - WNW 17 19 9 10 - - -
10/10:30pm - - - - - W 17 19 9 10 - - -
10/10:00pm - - - - - WSW 11 19 6 10 - - -
10/09:30pm - - - - - SW 15 22 8 12 - - -
10/09:00pm - - - - - S 11 20 6 11 - - -
10/08:30pm - - - - - S 13 19 7 10 - - -
10/08:00pm - - - - - S 11 19 6 10 - - -
10/07:30pm - - - - - S 11 17 6 9 - - -
10/07:00pm - - - - - S 11 17 6 9 - - -
10/06:30pm - - - - - SSE 13 20 7 11 - - -
10/06:00pm - - - - - S 11 20 6 11 - - -
10/05:30pm - - - - - S 11 19 6 10 - - -
10/05:00pm - - - - - SSE 17 24 9 13 - - -
10/04:30pm - - - - - SSE 22 30 12 16 - - -
10/04:00pm - - - - - SSE 20 30 11 16 - - -
10/03:30pm - - - - - SSE 24 33 13 18 - - -
10/03:00pm - - - - - SSE 19 28 10 15 - - -
10/02:30pm - - - - - SSE 20 26 11 14 - - -
10/02:00pm - - - - - SSE 19 24 10 13 - - -
10/01:30pm - - - - - SSE 15 24 8 13 - - -
10/01:00pm - - - - - SSE 13 22 7 12 - - -
10/12:30pm - - - - - NW 6 9 3 5 - - -
10/12:00pm - - - - - WNW 9 13 5 7 - - -
10/11:30am - - - - - WNW 13 15 7 8 - - -
10/11:00am - - - - - WNW 15 17 8 9 - - -
10/10:30am - - - - - WNW 17 20 9 11 - - -
10/10:00am - - - - - WNW 19 22 10 12 - - -
10/09:30am - - - - - WNW 17 20 9 11 - - -
10/09:00am - - - - - W 19 22 10 12 - - -
10/08:30am - - - - - WNW 26 30 14 16 - - -
10/08:00am - - - - - WNW 20 24 11 13 - - -
10/07:30am - - - - - W 20 24 11 13 - - -
10/07:00am - - - - - W 24 32 13 17 - - -
10/06:30am - - - - - W 26 35 14 19 - - -
10/06:00am - - - - - W 22 28 12 15 - - -
10/05:30am - - - - - W 22 26 12 14 - - -
10/05:00am - - - - - WNW 17 22 9 12 - - -
10/04:30am - - - - - WNW 17 22 9 12 - - -
10/04:00am - - - - - WNW 13 17 7 9 - - -
10/03:30am - - - - - WNW 19 22 10 12 - - -
10/03:00am - - - - - WNW 19 20 10 11 - - -
10/02:30am - - - - - W 19 20 10 11 - - -
10/02:00am - - - - - WNW 17 20 9 11 - - -
10/01:30am - - - - - WNW 19 20 10 11 - - -
10/01:00am - - - - - WNW 15 19 8 10 - - -
10/12:30am - - - - - WNW 15 19 8 10 - - -
10/12:00am - - - - - WNW 13 17 7 9 - - -
 
Date/Time
EST
Temp
°C
App
Temp
°C
Dew
Point
°C
Rel
Hum
%
Delta-T
°C
Wind Press
QNH
hPa
Press
MSL
hPa
Rain since
9am
mm
Dir  Spd
km/h
Gust
km/h
Spd
kts
Gust
kts
09/11:30pm - - - - - WNW 15 17 8 9 - - -
09/11:00pm - - - - - WNW 13 15 7 8 - - -
09/10:30pm - - - - - WNW 15 19 8 10 - - -
09/10:00pm - - - - - WNW 15 19 8 10 - - -
09/09:30pm - - - - - WNW 13 15 7 8 - - -
09/09:00pm - - - - - WNW 9 11 5 6 - - -
09/08:30pm - - - - - NW 6 11 3 6 - - -
09/08:00pm - - - - - NNW 2 4 1 2 - - -
09/07:30pm - - - - - WSW 2 4 1 2 - - -
09/07:00pm - - - - - SW 2 4 1 2 - - -
09/06:30pm - - - - - S 6 7 3 4 - - -
09/06:00pm - - - - - SSE 4 6 2 3 - - -
09/05:30pm - - - - - SE 6 13 3 7 - - -
09/05:00pm - - - - - SSE 11 17 6 9 - - -
09/04:30pm - - - - - SSE 13 17 7 9 - - -
09/04:00pm - - - - - SE 13 24 7 13 - - -
09/03:30pm - - - - - SE 17 22 9 12 - - -
09/03:00pm - - - - - SE 17 20 9 11 - - -
09/02:30pm - - - - - SE 15 22 8 12 - - -
09/02:00pm - - - - - SE 13 20 7 11 - - -
09/01:30pm - - - - - SSE 13 19 7 10 - - -
09/01:00pm - - - - - S 11 20 6 11 - - -
09/12:30pm - - - - - SSE 15 22 8 12 - - -
09/12:00pm - - - - - S 9 19 5 10 - - -
09/11:30am - - - - - SW 4 7 2 4 - - -
09/11:00am - - - - - W 9 15 5 8 - - -
09/10:30am - - - - - WNW 11 15 6 8 - - -
09/10:00am - - - - - WNW 17 22 9 12 - - -
09/09:30am - - - - - W 20 26 11 14 - - -
09/09:00am - - - - - W 24 32 13 17 - - -
09/08:30am - - - - - W 24 30 13 16 - - -
09/08:00am - - - - - W 26 32 14 17 - - -
09/07:30am - - - - - W 24 28 13 15 - - -
09/07:00am - - - - - W 24 30 13 16 - - -
09/06:30am - - - - - W 24 30 13 16 - - -
09/06:00am - - - - - W 22 28 12 15 - - -
09/05:30am - - - - - W 22 28 12 15 - - -
09/05:00am - - - - - W 24 28 13 15 - - -
09/04:30am - - - - - W 22 26 12 14 - - -
09/04:00am - - - - - W 24 28 13 15 - - -
09/03:30am - - - - - W 22 28 12 15 - - -
09/03:00am - - - - - W 22 28 12 15 - - -
09/02:30am - - - - - W 22 26 12 14 - - -
09/02:00am - - - - - W 24 33 13 18 - - -
09/01:30am - - - - - W 22 30 12 16 - - -
09/01:00am - - - - - W 24 28 13 15 - - -
09/12:30am - - - - - W 24 30 13 16 - - -
09/12:00am - - - - - W 22 28 12 15 - - -
 
Date/Time
EST
Temp
°C
App
Temp
°C
Dew
Point
°C
Rel
Hum
%
Delta-T
°C
Wind Press
QNH
hPa
Press
MSL
hPa
Rain since
9am
mm
Dir  Spd
km/h
Gust
km/h
Spd
kts
Gust
kts
08/11:30pm - - - - - W 20 26 11 14 - - -
08/11:00pm - - - - - W 19 30 10 16 - - -
08/10:30pm - - - - - W 22 30 12 16 - - -
08/10:00pm - - - - - W 20 28 11 15 - - -
08/09:30pm - - - - - W 22 33 12 18 - - -
08/09:00pm - - - - - W 20 30 11 16 - - -
08/08:30pm - - - - - W 20 28 11 15 - - -
08/08:00pm - - - - - W 20 33 11 18 - - -
08/07:30pm - - - - - W 19 24 10 13 - - -
08/07:00pm - - - - - W 22 32 12 17 - - -
08/06:30pm - - - - - W 28 37 15 20 - - -
08/06:00pm - - - - - W 24 37 13 20 - - -
08/05:30pm - - - - - W 20 37 11 20 - - -
08/05:00pm - - - - - W 26 35 14 19 - - -
08/04:30pm - - - - - W 22 37 12 20 - - -
08/04:00pm - - - - - W 26 37 14 20 - - -
08/03:30pm - - - - - W 30 43 16 23 - - -
08/03:00pm - - - - - W 26 41 14 22 - - -
08/02:30pm - - - - - W 30 43 16 23 - - -
08/02:09pm - - - - - W 28 48 15 26 - - -
08/02:00pm - - - - - W 30 44 16 24 - - -
08/01:32pm - - - - - W 30 48 16 26 - - -
08/01:30pm - - - - - W 28 39 15 21 - - -
08/01:00pm - - - - - W 30 43 16 23 - - -
08/12:31pm - - - - - W 28 46 15 25 - - -
08/12:30pm - - - - - W 26 46 14 25 - - -
08/12:04pm - - - - - W 33 57 18 31 - - -
08/12:00pm - - - - - W 32 46 17 25 - - -
08/11:36am - - - - - WSW 37 56 20 30 - - -
08/11:30am - - - - - W 39 56 21 30 - - -
08/11:00am - - - - - WNW 28 46 15 25 - - -
08/10:30am - - - - - WNW 26 33 14 18 - - -
08/10:00am - - - - - WNW 26 33 14 18 - - -
08/09:30am - - - - - WNW 26 35 14 19 - - -
08/09:00am - - - - - WNW 28 35 15 19 - - -
08/08:30am - - - - - WNW 28 35 15 19 - - -
08/08:00am - - - - - WNW 19 26 10 14 - - -
08/07:30am - - - - - WNW 17 24 9 13 - - -
08/07:00am - - - - - WNW 15 20 8 11 - - -
08/06:30am - - - - - WNW 17 22 9 12 - - -

Latest Capital City Observations: Canberra | Sydney | Melbourne | Brisbane | Adelaide | Perth | Hobart | Darwin

Other formats

Comma delimited format used in spreadsheet applications
http://www.bom.gov.au/fwo/IDN60901/IDN60901.94769.axf

JavaScript Object Notation format (JSON) in row-major order
http://www.bom.gov.au/fwo/IDN60901/IDN60901.94769.json

Data quality

Most of these data are generated automatically and are frequently updated. Quality checks on data are not normally performed. It is possible for incorrect values to appear. Refer to information at About Latest Weather Observations and please check the disclaimer before using these data.